createdAt,value
2017-11-28T00:00:53.608Z,5.37
2017-11-28T00:03:21.928Z,3.93
2017-11-28T00:05:51.012Z,5.63
2017-11-28T00:08:19.471Z,4.73
2017-11-28T00:10:47.459Z,3.07
2017-11-28T00:13:16.087Z,5.47
2017-11-28T00:15:43.771Z,4.40
2017-11-28T00:18:11.240Z,3.80
2017-11-28T00:20:39.271Z,3.23
2017-11-28T00:23:07.788Z,3.17
2017-11-28T00:25:35.779Z,5.20
2017-11-28T00:28:04.572Z,5.03
2017-11-28T00:30:33.333Z,3.70
2017-11-28T00:33:01.324Z,4.47
2017-11-28T00:35:30.121Z,3.73
2017-11-28T00:37:58.544Z,4.17
2017-11-28T00:40:26.871Z,4.57
2017-11-28T00:42:55.693Z,4.37
2017-11-28T00:45:23.350Z,4.03
2017-11-28T00:47:50.823Z,3.27
2017-11-28T00:50:18.522Z,2.93
2017-11-28T00:52:46.183Z,5.30
2017-11-28T00:55:13.849Z,3.60
2017-11-28T00:57:42.198Z,4.73
2017-11-28T01:00:10.197Z,4.23
2017-11-28T01:02:38.184Z,4.07
2017-11-28T01:05:07.307Z,5.20
2017-11-28T01:07:34.971Z,3.97
2017-11-28T01:10:02.956Z,4.50
2017-11-28T01:12:30.860Z,4.07
2017-11-28T01:14:58.853Z,4.93
2017-11-28T01:17:26.512Z,5.40
2017-11-28T01:19:54.216Z,5.77
2017-11-28T01:22:22.912Z,4.53
2017-11-28T01:24:50.574Z,5.93
2017-11-28T01:27:18.276Z,6.77
2017-11-28T01:29:47.359Z,5.10
2017-11-28T01:32:16.827Z,6.10
2017-11-28T01:34:44.535Z,6.13
2017-11-28T01:37:12.957Z,5.33
2017-11-28T01:39:40.628Z,4.90
2017-11-28T01:42:08.317Z,5.33
2017-11-28T01:44:36.743Z,3.33
2017-11-28T01:47:04.411Z,4.70
2017-11-28T01:49:32.297Z,4.07
2017-11-28T01:51:59.953Z,4.40
2017-11-28T01:54:28.299Z,4.73
2017-11-28T01:56:56.005Z,4.57
2017-11-28T01:59:23.663Z,3.87
2017-11-28T02:01:52.560Z,7.60
2017-11-28T02:04:20.242Z,4.73
2017-11-28T02:06:49.208Z,4.13
2017-11-28T02:09:16.871Z,3.33
2017-11-28T02:11:44.560Z,5.10
2017-11-28T02:14:12.988Z,3.40
2017-11-28T02:16:40.464Z,4.13
2017-11-28T02:19:08.174Z,4.00
2017-11-28T02:21:35.647Z,3.47
2017-11-28T02:24:03.511Z,4.30
2017-11-28T02:26:31.228Z,4.60
2017-11-28T02:28:59.600Z,5.07
2017-11-28T02:31:27.068Z,4.13
2017-11-28T02:33:55.537Z,3.70
2017-11-28T02:36:23.401Z,5.13
2017-11-28T02:38:51.267Z,4.57
2017-11-28T02:41:20.768Z,3.57
2017-11-28T02:43:48.629Z,2.93
2017-11-28T02:46:16.495Z,3.10
2017-11-28T02:48:44.189Z,2.50
2017-11-28T02:51:18.495Z,2.70
2017-11-28T02:53:46.367Z,3.53
2017-11-28T02:56:14.987Z,3.17
2017-11-28T02:58:47.129Z,2.37
2017-11-28T03:01:22.204Z,2.10
2017-11-28T03:03:50.093Z,3.23
2017-11-28T03:06:17.956Z,2.83
2017-11-28T03:08:45.809Z,3.20
2017-11-28T03:11:13.738Z,2.50
2017-11-28T03:13:41.390Z,3.13
2017-11-28T03:16:19.787Z,3.13
2017-11-28T03:18:48.993Z,4.20
2017-11-28T03:21:22.613Z,2.77
2017-11-28T03:24:02.723Z,2.47
2017-11-28T03:26:30.387Z,2.47
2017-11-28T03:29:00.017Z,2.50
2017-11-28T03:31:31.383Z,3.07
2017-11-28T03:34:03.547Z,2.90
2017-11-28T03:36:31.208Z,3.27
2017-11-28T03:38:59.731Z,3.00
2017-11-28T03:41:27.660Z,2.63
2017-11-28T03:43:55.127Z,3.17
2017-11-28T03:46:22.643Z,3.33
2017-11-28T03:48:51.099Z,4.50
2017-11-28T03:51:18.777Z,2.73
2017-11-28T03:53:47.232Z,3.30
2017-11-28T03:56:14.703Z,2.43
2017-11-28T03:58:42.368Z,3.93
2017-11-28T04:01:10.848Z,4.77
2017-11-28T04:03:38.693Z,3.23
2017-11-28T04:06:06.397Z,4.37
2017-11-28T04:08:35.029Z,3.63
2017-11-28T04:11:02.684Z,3.07
2017-11-28T04:13:30.391Z,6.70
2017-11-28T04:15:59.782Z,2.87
2017-11-28T04:18:27.553Z,5.83
2017-11-28T04:20:56.008Z,5.93
2017-11-28T04:23:23.677Z,2.23
2017-11-28T04:25:51.333Z,3.10
2017-11-28T04:28:19.036Z,2.50
2017-11-28T04:30:46.687Z,3.30
2017-11-28T04:33:14.365Z,2.37
2017-11-28T04:35:42.062Z,4.07
2017-11-28T04:38:09.719Z,2.77
2017-11-28T04:40:37.388Z,3.33
2017-11-28T04:43:05.072Z,4.03
2017-11-28T04:45:32.730Z,3.53
2017-11-28T04:48:00.400Z,2.63
2017-11-28T04:50:29.788Z,4.70
2017-11-28T04:52:57.604Z,3.50
2017-11-28T04:55:25.258Z,3.07
2017-11-28T04:57:52.946Z,3.20
2017-11-28T05:00:20.611Z,5.40
2017-11-28T05:02:48.268Z,6.97
2017-11-28T05:05:15.963Z,3.07
2017-11-28T05:07:43.619Z,5.60
2017-11-28T05:10:11.276Z,6.10
2017-11-28T05:12:39.168Z,6.43
2017-11-28T05:15:07.797Z,6.10
2017-11-28T05:17:35.455Z,3.60
2017-11-28T05:20:03.192Z,3.67
2017-11-28T05:22:30.849Z,4.30
2017-11-28T05:24:59.068Z,3.17
2017-11-28T05:27:26.761Z,4.30
2017-11-28T05:29:54.625Z,3.87
2017-11-28T05:32:22.291Z,2.80
2017-11-28T05:34:50.757Z,4.30
2017-11-28T05:37:18.614Z,2.50
2017-11-28T05:39:46.276Z,3.20
2017-11-28T05:42:13.960Z,3.90
2017-11-28T05:44:42.391Z,3.10
2017-11-28T05:47:10.056Z,4.50
2017-11-28T05:49:37.755Z,4.17
2017-11-28T05:52:05.414Z,3.50
2017-11-28T05:54:33.847Z,3.73
2017-11-28T05:57:01.566Z,5.40
2017-11-28T05:59:30.188Z,4.30
2017-11-28T06:01:58.423Z,4.77
2017-11-28T06:04:26.880Z,4.00
2017-11-28T06:06:54.548Z,5.13
2017-11-28T06:09:22.208Z,4.83
2017-11-28T06:11:50.843Z,5.43
2017-11-28T06:14:18.503Z,4.37
2017-11-28T06:16:46.165Z,4.80
2017-11-28T06:19:14.055Z,4.43
2017-11-28T06:21:41.533Z,5.63
2017-11-28T06:24:09.003Z,5.40
2017-11-28T06:26:37.461Z,5.33
2017-11-28T06:29:05.124Z,6.80
2017-11-28T06:31:32.788Z,6.70
2017-11-28T06:34:00.491Z,6.27
2017-11-28T06:36:28.795Z,7.17
2017-11-28T06:38:56.455Z,7.00
2017-11-28T06:41:24.144Z,7.40
2017-11-28T06:43:54.515Z,7.70
2017-11-28T06:46:22.173Z,6.40
2017-11-28T06:48:49.867Z,7.73
2017-11-28T06:51:17.527Z,6.57
2017-11-28T06:53:45.196Z,6.13
2017-11-28T06:56:12.884Z,6.73
2017-11-28T06:58:40.543Z,8.67
2017-11-28T07:01:08.201Z,9.00
2017-11-28T07:03:38.825Z,8.87
2017-11-28T07:06:06.694Z,6.17
2017-11-28T07:08:34.359Z,6.93
2017-11-28T07:11:02.054Z,6.37
2017-11-28T07:13:30.477Z,7.20
2017-11-28T07:15:58.821Z,6.53
2017-11-28T07:18:26.497Z,5.70
2017-11-28T07:20:54.159Z,8.10
2017-11-28T07:23:21.841Z,7.13
2017-11-28T07:25:49.697Z,6.60
2017-11-28T07:28:17.399Z,5.90
2017-11-28T07:30:45.065Z,6.00
2017-11-28T07:33:13.493Z,5.27
2017-11-28T07:35:41.225Z,8.07
2017-11-28T07:38:09.084Z,5.10
2017-11-28T07:40:37.511Z,8.87
2017-11-28T07:43:05.297Z,5.37
2017-11-28T07:45:32.950Z,6.47
2017-11-28T07:48:00.610Z,7.33
2017-11-28T07:50:28.319Z,8.47
2017-11-28T07:52:55.980Z,8.67
2017-11-28T07:55:23.840Z,5.70
2017-11-28T07:57:51.624Z,5.20
2017-11-28T08:00:19.285Z,5.47
2017-11-28T08:02:46.944Z,4.10
2017-11-28T08:05:14.645Z,5.43
2017-11-28T08:07:43.077Z,6.17
2017-11-28T08:10:10.936Z,6.50
2017-11-28T08:12:38.618Z,7.47
2017-11-28T08:15:06.307Z,4.67
2017-11-28T08:17:34.740Z,5.13
2017-11-28T08:20:02.403Z,5.17
2017-11-28T08:22:29.923Z,4.83
2017-11-28T08:24:58.502Z,5.27
2017-11-28T08:27:26.737Z,5.20
2017-11-28T08:29:54.446Z,6.43
2017-11-28T08:32:21.925Z,4.73
2017-11-28T08:34:49.600Z,5.57
2017-11-28T08:37:17.096Z,5.67
2017-11-28T08:39:44.564Z,6.77
2017-11-28T08:42:12.798Z,5.53
2017-11-28T08:44:40.320Z,6.10
2017-11-28T08:47:07.788Z,5.10
2017-11-28T08:49:35.263Z,5.30
2017-11-28T08:52:02.993Z,5.83
2017-11-28T08:54:30.649Z,5.13
2017-11-28T08:56:58.572Z,7.37
2017-11-28T08:59:26.261Z,6.60
2017-11-28T09:01:54.692Z,4.63
2017-11-28T09:04:22.352Z,5.13
2017-11-28T09:06:50.049Z,5.10
2017-11-28T09:09:17.912Z,4.60
2017-11-28T09:11:45.568Z,3.97
2017-11-28T09:14:13.252Z,4.40
2017-11-28T09:16:41.675Z,3.47
2017-11-28T09:19:09.348Z,5.00
2017-11-28T09:21:37.023Z,4.37
2017-11-28T09:24:04.727Z,4.83
2017-11-28T09:26:32.398Z,5.83
2017-11-28T09:29:00.059Z,5.00
2017-11-28T09:31:27.798Z,7.27
2017-11-28T09:33:56.216Z,5.07
2017-11-28T09:36:23.929Z,6.07
2017-11-28T09:38:52.357Z,5.30
2017-11-28T09:41:20.017Z,7.40
2017-11-28T09:43:47.721Z,8.10
2017-11-28T09:46:15.380Z,5.57
2017-11-28T09:48:43.049Z,6.30
2017-11-28T09:51:10.745Z,5.73
2017-11-28T09:53:39.078Z,4.03
2017-11-28T09:56:06.940Z,6.23
2017-11-28T09:58:35.295Z,4.20
2017-11-28T10:01:02.967Z,5.83
2017-11-28T10:03:30.636Z,5.10
2017-11-28T10:05:59.216Z,6.17
2017-11-28T10:08:26.880Z,6.83
2017-11-28T10:10:55.209Z,5.37
2017-11-28T10:13:22.916Z,5.63
2017-11-28T10:15:50.780Z,4.93
2017-11-28T10:18:18.445Z,4.40
2017-11-28T10:20:46.473Z,5.63
2017-11-28T10:23:14.133Z,5.07
2017-11-28T10:25:41.797Z,7.03
2017-11-28T10:28:09.481Z,5.90
2017-11-28T10:30:37.145Z,6.30
2017-11-28T10:33:04.849Z,7.70
2017-11-28T10:35:33.270Z,8.03
2017-11-28T10:38:00.945Z,7.60
2017-11-28T10:40:29.252Z,6.43
2017-11-28T10:42:56.720Z,4.97
2017-11-28T10:45:25.475Z,5.27
2017-11-28T10:47:53.170Z,4.97
2017-11-28T10:50:21.799Z,3.90
2017-11-28T10:52:49.788Z,2.43
2017-11-28T10:55:17.568Z,2.20
2017-11-28T10:57:45.244Z,2.43
2017-11-28T11:00:12.904Z,1.80
2017-11-28T11:02:41.695Z,2.80
2017-11-28T11:05:10.125Z,2.47
2017-11-28T11:07:38.444Z,2.20
2017-11-28T11:10:06.911Z,2.70
2017-11-28T11:12:34.775Z,3.00
2017-11-28T11:15:02.440Z,2.43
2017-11-28T11:17:30.471Z,1.53
2017-11-28T11:19:58.484Z,1.67
2017-11-28T11:22:26.342Z,1.67
2017-11-28T11:24:54.359Z,2.73
2017-11-28T11:27:22.361Z,1.63
2017-11-28T11:29:50.219Z,1.57
2017-11-28T11:32:17.923Z,2.67
2017-11-28T11:34:46.351Z,1.93
2017-11-28T11:37:14.016Z,1.40
2017-11-28T11:39:41.896Z,1.47
2017-11-28T11:42:09.562Z,1.50
2017-11-28T11:44:37.566Z,2.30
2017-11-28T11:47:06.021Z,2.73
2017-11-28T11:49:33.680Z,2.27
2017-11-28T11:52:04.340Z,3.17
2017-11-28T11:54:32.053Z,6.10
2017-11-28T11:56:59.924Z,2.80
2017-11-28T11:59:28.477Z,5.53
2017-11-28T12:01:56.499Z,6.80
2017-11-28T12:04:25.272Z,27.83
2017-11-28T12:06:52.938Z,17.63
2017-11-28T12:09:20.812Z,7.77
2017-11-28T12:11:49.062Z,7.60
2017-11-28T12:14:16.536Z,8.53
2017-11-28T12:16:44.323Z,8.50
2017-11-28T12:19:13.089Z,12.87
2017-11-28T12:21:40.754Z,17.43
2017-11-28T12:24:08.454Z,24.67
2017-11-28T12:26:36.592Z,38.40
2017-11-28T12:29:04.849Z,29.87
2017-11-28T12:31:32.537Z,9.10
2017-11-28T12:34:00.781Z,16.50
2017-11-28T12:36:28.772Z,20.50
2017-11-28T12:38:57.052Z,33.83
2017-11-28T12:41:25.817Z,42.23
2017-11-28T12:43:53.689Z,42.93
2017-11-28T12:46:21.924Z,21.37
2017-11-28T12:48:49.920Z,42.00
2017-11-28T12:51:18.250Z,18.53
2017-11-28T12:53:45.944Z,29.80
2017-11-28T12:56:13.613Z,27.47
2017-11-28T12:58:41.275Z,31.70
2017-11-28T13:01:10.056Z,33.27
2017-11-28T13:03:38.054Z,55.70
2017-11-28T13:06:05.760Z,90.60
2017-11-28T13:08:33.756Z,65.10
2017-11-28T13:11:01.427Z,51.93
2017-11-28T13:13:29.288Z,53.33
2017-11-28T13:15:56.964Z,32.40
2017-11-28T13:18:24.839Z,26.60
2017-11-28T13:20:52.742Z,32.03
2017-11-28T13:23:20.743Z,31.80
2017-11-28T13:25:48.936Z,11.13
2017-11-28T13:28:16.638Z,12.10
2017-11-28T13:30:44.827Z,16.83
2017-11-28T13:33:12.308Z,24.40
2017-11-28T13:35:40.328Z,27.50
2017-11-28T13:38:07.991Z,20.27
2017-11-28T13:40:35.688Z,18.80
2017-11-28T13:43:03.350Z,10.50
2017-11-28T13:45:30.824Z,10.50
2017-11-28T13:47:58.563Z,12.57
2017-11-28T13:50:26.229Z,13.43
2017-11-28T13:52:54.228Z,73.90
2017-11-28T13:55:21.920Z,41.80
2017-11-28T13:57:50.243Z,26.77
2017-11-28T14:00:17.906Z,17.07
2017-11-28T14:02:46.462Z,14.00
2017-11-28T14:05:14.452Z,11.07
2017-11-28T14:07:42.316Z,7.37
2017-11-28T14:10:10.011Z,7.50
2017-11-28T14:12:39.097Z,7.07
2017-11-28T14:15:07.231Z,5.07
2017-11-28T14:17:35.091Z,5.70
2017-11-28T14:20:04.373Z,6.77
2017-11-28T14:25:50.959Z,6.10
2017-11-28T14:28:18.918Z,7.23
2017-11-28T14:31:01.451Z,163.63
2017-11-28T14:33:40.547Z,82.07
2017-11-28T14:36:08.596Z,82.77
2017-11-28T14:38:36.077Z,73.63
2017-11-28T14:41:15.514Z,78.93
2017-11-28T14:46:46.786Z,59.63
2017-11-28T14:49:15.036Z,68.50
2017-11-28T14:51:45.272Z,62.87
2017-11-28T14:57:30.323Z,34.93
2017-11-28T15:00:03.739Z,34.80
2017-11-28T15:05:53.860Z,12.03
2017-11-28T15:11:31.838Z,10.70
2017-11-28T15:14:01.024Z,7.43
2017-11-28T15:16:34.492Z,7.87
2017-11-28T15:22:11.136Z,6.10
2017-11-28T15:24:56.332Z,2.60
2017-11-28T15:27:23.824Z,3.63
2017-11-28T15:29:51.302Z,7.90
2017-11-28T15:32:18.972Z,5.37
2017-11-28T15:34:46.656Z,8.17
2017-11-28T15:37:14.316Z,7.43
2017-11-28T15:39:42.003Z,7.90
2017-11-28T15:42:10.428Z,6.07
2017-11-28T15:44:38.090Z,6.30
2017-11-28T15:47:05.783Z,5.37
2017-11-28T15:49:33.462Z,6.47
2017-11-28T15:52:01.308Z,4.77
2017-11-28T15:54:30.021Z,4.30
2017-11-28T15:56:58.769Z,4.17
2017-11-28T15:59:26.425Z,9.67
2017-11-28T16:01:54.435Z,15.90
2017-11-28T16:04:22.861Z,9.53
2017-11-28T16:06:50.547Z,12.87
2017-11-28T16:09:18.553Z,11.33
2017-11-28T16:11:46.549Z,10.90
2017-11-28T16:14:14.248Z,12.10
2017-11-28T16:16:41.900Z,8.23
2017-11-28T16:19:09.765Z,7.17
2017-11-28T16:21:37.448Z,5.73
2017-11-28T16:24:05.912Z,7.07
2017-11-28T16:26:33.572Z,6.27
2017-11-28T16:29:01.564Z,4.87
2017-11-28T16:31:30.716Z,6.47
2017-11-28T16:33:59.336Z,4.27
2017-11-28T16:36:28.643Z,5.63
2017-11-28T16:38:57.095Z,5.33
2017-11-28T16:41:24.757Z,4.93
2017-11-28T16:43:52.754Z,5.93
2017-11-28T16:46:21.408Z,8.47
2017-11-28T16:48:49.068Z,9.83
2017-11-28T16:51:16.727Z,9.37
2017-11-28T16:53:44.433Z,7.13
2017-11-28T16:56:12.087Z,5.40
2017-11-28T16:58:40.079Z,7.33
2017-11-28T17:01:07.769Z,6.57
2017-11-28T17:03:36.294Z,5.70
2017-11-28T17:06:04.001Z,5.70
2017-11-28T17:08:31.685Z,4.77
2017-11-28T17:10:59.756Z,6.93
2017-11-28T17:13:28.926Z,6.43
2017-11-28T17:15:56.592Z,10.03
2017-11-28T17:18:24.065Z,8.73
2017-11-28T17:20:51.571Z,8.63
2017-11-28T17:23:19.378Z,7.97
2017-11-28T17:25:46.848Z,7.33
2017-11-28T17:28:15.312Z,7.43
2017-11-28T17:30:42.971Z,9.67
2017-11-28T17:33:10.840Z,11.40
2017-11-28T17:35:38.869Z,10.57
2017-11-28T17:38:06.530Z,8.20
2017-11-28T17:40:34.517Z,9.40
2017-11-28T17:43:02.429Z,9.27
2017-11-28T17:45:30.855Z,7.83
2017-11-28T17:47:59.168Z,9.17
2017-11-28T17:50:26.877Z,10.50
2017-11-28T17:52:54.684Z,7.33
2017-11-28T17:55:22.348Z,7.13
2017-11-28T17:57:50.371Z,6.90
2017-11-28T18:00:18.031Z,7.00
2017-11-28T18:02:46.020Z,6.87
2017-11-28T18:05:13.711Z,8.07
2017-11-28T18:07:42.141Z,6.40
2017-11-28T18:10:10.138Z,5.67
2017-11-28T18:12:38.039Z,4.50
2017-11-28T18:15:06.460Z,4.23
2017-11-28T18:17:34.120Z,5.80
2017-11-28T18:20:02.146Z,3.47
2017-11-28T18:22:30.569Z,5.47
2017-11-28T18:24:58.912Z,4.30
2017-11-28T18:27:27.369Z,5.07
2017-11-28T18:29:55.355Z,5.73
2017-11-28T18:32:22.831Z,6.80
2017-11-28T18:34:50.856Z,5.20
2017-11-28T18:37:18.327Z,5.60
2017-11-28T18:39:46.589Z,5.93
2017-11-28T18:42:14.938Z,4.57
2017-11-28T18:44:42.797Z,3.33
2017-11-28T18:47:10.783Z,4.03
2017-11-28T18:49:38.551Z,3.97
2017-11-28T18:52:06.217Z,3.67
2017-11-28T18:54:33.876Z,5.10
2017-11-28T18:57:01.891Z,4.47
2017-11-28T18:59:30.222Z,4.73
2017-11-28T19:01:58.926Z,4.47
2017-11-28T19:04:27.684Z,3.43
2017-11-28T19:06:55.342Z,5.17
2017-11-28T19:09:23.033Z,5.17
2017-11-28T19:11:51.797Z,4.57
2017-11-28T19:14:19.672Z,5.07
2017-11-28T19:16:47.368Z,5.40
2017-11-28T19:19:15.369Z,4.83
2017-11-28T19:21:43.028Z,4.93
2017-11-28T19:24:10.733Z,5.93
2017-11-28T19:26:39.168Z,6.13
2017-11-28T19:29:07.159Z,6.30
2017-11-28T19:31:35.179Z,5.93
2017-11-28T19:34:02.841Z,5.97
2017-11-28T19:36:30.606Z,7.07
2017-11-28T19:38:59.151Z,6.73
2017-11-28T19:41:27.582Z,6.50
2017-11-28T19:43:55.244Z,7.53
2017-11-28T19:46:22.771Z,8.03
2017-11-28T19:48:50.771Z,7.23
2017-11-28T19:51:18.450Z,8.27
2017-11-28T19:53:46.169Z,7.73
2017-11-28T19:56:14.601Z,7.13
2017-11-28T19:58:43.028Z,7.67
2017-11-28T20:01:11.308Z,6.70
2017-11-28T20:03:38.969Z,7.30
2017-11-28T20:06:07.033Z,7.63
2017-11-28T20:08:35.248Z,10.03
2017-11-28T20:11:03.044Z,8.23
2017-11-28T20:13:30.697Z,8.37
2017-11-28T20:15:59.370Z,8.63
2017-11-28T20:18:27.028Z,7.30
2017-11-28T20:20:54.635Z,7.33
2017-11-28T20:23:22.736Z,9.00
2017-11-28T20:25:50.476Z,8.23
2017-11-28T20:28:18.792Z,7.87
2017-11-28T20:30:46.934Z,7.60
2017-11-28T20:33:14.604Z,8.23
2017-11-28T20:35:42.266Z,7.77
2017-11-28T20:38:09.965Z,8.17
2017-11-28T20:40:37.643Z,8.53
2017-11-28T20:43:06.507Z,10.67
2017-11-28T20:45:34.175Z,8.20
2017-11-28T20:48:01.836Z,8.87
2017-11-28T20:50:30.379Z,9.20
2017-11-28T20:52:58.149Z,9.43
2017-11-28T20:55:25.808Z,11.33
2017-11-28T20:57:53.519Z,9.53
2017-11-28T21:00:21.944Z,9.37
2017-11-28T21:02:49.608Z,10.50
2017-11-28T21:05:17.294Z,10.50
2017-11-28T21:07:45.676Z,11.13
2017-11-28T21:10:13.704Z,11.43
2017-11-28T21:12:41.371Z,10.97
2017-11-28T21:15:09.397Z,12.40
2017-11-28T21:17:37.444Z,11.47
2017-11-28T21:20:05.783Z,11.03
2017-11-28T21:22:33.633Z,12.73
2017-11-28T21:25:01.313Z,11.57
2017-11-28T21:27:29.554Z,10.07
2017-11-28T21:29:58.203Z,11.00
2017-11-28T21:32:25.887Z,11.37
2017-11-28T21:34:54.649Z,12.13
2017-11-28T21:37:22.361Z,12.23
2017-11-28T21:39:50.354Z,11.77
2017-11-28T21:42:18.023Z,13.10
2017-11-28T21:44:46.047Z,11.37
2017-11-28T21:47:14.201Z,12.13
2017-11-28T21:49:42.632Z,11.50
2017-11-28T21:52:10.865Z,13.50
2017-11-28T21:54:39.828Z,11.87
2017-11-28T21:57:07.829Z,11.60
2017-11-28T21:59:35.857Z,13.87
2017-11-28T22:02:03.858Z,12.43
2017-11-28T22:04:32.280Z,13.97
2017-11-28T22:07:01.107Z,15.00
2017-11-28T22:09:29.533Z,16.93
2017-11-28T22:11:58.214Z,15.10
2017-11-28T22:14:25.879Z,12.50
2017-11-28T22:16:54.401Z,13.40
2017-11-28T22:19:22.270Z,13.23
2017-11-28T22:21:49.951Z,12.40
2017-11-28T22:24:18.204Z,14.57
2017-11-28T22:26:47.565Z,14.13
2017-11-28T22:29:15.295Z,13.10
2017-11-28T22:31:43.753Z,12.80
2017-11-28T22:34:11.780Z,13.47
2017-11-28T22:36:39.448Z,13.77
2017-11-28T22:39:07.117Z,13.73
2017-11-28T22:41:34.812Z,13.03
2017-11-28T22:44:03.575Z,13.27
2017-11-28T22:46:31.578Z,16.43
2017-11-28T22:49:00.904Z,15.43
2017-11-28T22:51:28.583Z,14.83
2017-11-28T22:53:56.599Z,13.27
2017-11-28T22:56:25.397Z,12.80
2017-11-28T22:58:53.824Z,11.73
2017-11-28T23:01:22.153Z,12.73
2017-11-28T23:03:50.183Z,11.33
2017-11-28T23:06:18.180Z,12.40
2017-11-28T23:08:46.939Z,12.83
2017-11-28T23:11:14.705Z,13.57
2017-11-28T23:13:54.193Z,13.73
2017-11-28T23:16:22.313Z,13.20
2017-11-28T23:18:49.973Z,15.37
2017-11-28T23:21:17.847Z,15.93
2017-11-28T23:23:45.530Z,17.83
2017-11-28T23:26:13.967Z,15.53
2017-11-28T23:28:41.668Z,17.40
2017-11-28T23:31:10.100Z,16.70
2017-11-28T23:33:37.968Z,16.90
2017-11-28T23:36:05.666Z,19.20
2017-11-28T23:38:34.096Z,19.17
2017-11-28T23:41:01.767Z,17.37
2017-11-28T23:43:30.960Z,18.47
2017-11-28T23:45:59.140Z,21.17
2017-11-28T23:48:26.947Z,23.43
2017-11-28T23:50:56.309Z,21.80
2017-11-28T23:53:23.983Z,19.13
2017-11-28T23:55:51.980Z,19.30
2017-11-28T23:58:20.259Z,17.37
